Time;durP1;ratioP1;P1;durP2;ratioP2;P2;SDS_P1;SDS_P2;PMS_P1;PMS_P2;Temp;Humidity;BMP_temperature;BMP_pressure;BME280_temperature;BME280_humidity;BME280_pressure;Samples;Min_cycle;Max_cycle;Signal;HPM_P1;HPM_P2
2021/06/16 00:01:31;;;;;;;3.15;1.70;;;;;;;15.93;63.16;93729.06;5106290;28;20020;-72
2021/06/16 00:03:57;;;;;;;8.02;2.20;;;;;;;15.89;63.33;93736.25;5110613;28;20105;-72
2021/06/16 00:06:22;;;;;;;2.55;1.55;;;;;;;15.93;63.35;93718.31;5098568;28;20489;-71
2021/06/16 00:08:48;;;;;;;6.35;1.85;;;;;;;15.93;63.63;93722.91;5110009;28;20072;-71
2021/06/16 00:11:13;;;;;;;5.25;1.75;;;;;;;15.80;64.05;93714.19;5096479;28;20035;-71
2021/06/16 00:13:38;;;;;;;7.15;1.90;;;;;;;15.86;63.83;93717.41;5096262;28;20101;-72
2021/06/16 00:16:04;;;;;;;3.22;1.52;;;;;;;15.76;63.48;93697.97;5104842;28;20411;-71
2021/06/16 00:18:30;;;;;;;6.28;1.67;;;;;;;15.83;63.92;93706.22;5101961;28;20028;-71
2021/06/16 00:20:55;;;;;;;7.68;1.67;;;;;;;15.82;63.52;93704.63;5103604;28;20039;-71
2021/06/16 00:23:21;;;;;;;4.70;2.13;;;;;;;15.89;63.60;93705.94;5099132;28;20020;-71
2021/06/16 00:25:48;;;;;;;5.28;3.17;;;;;;;15.89;63.40;93706.69;5104839;28;20403;-71
2021/06/16 00:28:14;;;;;;;5.32;2.00;;;;;;;15.86;63.59;93703.97;5094264;28;20486;-71
2021/06/16 00:30:39;;;;;;;4.10;1.80;;;;;;;15.90;63.35;93686.78;5098341;28;20063;-71
2021/06/16 00:33:05;;;;;;;5.55;2.22;;;;;;;15.86;63.04;93687.84;5103993;28;20103;-71
2021/06/16 00:35:30;;;;;;;7.43;1.77;;;;;;;15.98;63.13;93687.72;5099451;28;20030;-71
2021/06/16 00:37:57;;;;;;;6.88;2.33;;;;;;;15.91;62.92;93690.22;5103863;28;20483;-71
2021/06/16 00:40:25;;;;;;;3.55;1.92;;;;;;;15.96;62.82;93689.97;5106508;28;20020;-71
2021/06/16 00:42:51;;;;;;;4.20;2.33;;;;;;;16.02;62.39;93693.94;5098333;28;20032;-71
2021/06/16 00:45:19;;;;;;;8.13;1.65;;;;;;;16.02;62.47;93678.59;5107592;28;20027;-71
2021/06/16 00:47:45;;;;;;;8.02;1.83;;;;;;;16.02;62.26;93673.22;5099763;28;20092;-71
2021/06/16 00:50:12;;;;;;;3.17;1.83;;;;;;;16.04;62.32;93676.31;5096669;28;20024;-71
2021/06/16 00:52:39;;;;;;;2.60;1.70;;;;;;;16.09;61.96;93677.19;5105007;28;20020;-71
2021/06/16 00:55:06;;;;;;;3.00;1.58;;;;;;;16.09;62.40;93682.56;5108385;28;20024;-72
2021/06/16 00:57:32;;;;;;;5.47;1.58;;;;;;;16.12;62.04;93671.09;5104724;28;20111;-71
2021/06/16 01:00:07;;;;;;;5.78;1.55;;;;;;;16.08;61.91;93689.84;5101383;28;20027;-71
2021/06/16 01:02:38;;;;;;;4.15;1.95;;;;;;;16.11;61.76;93673.00;5111085;28;20472;-71
2021/06/16 01:05:06;;;;;;;2.63;1.75;;;;;;;16.15;62.09;93673.84;5101517;28;20028;-72
2021/06/16 01:07:38;;;;;;;6.32;1.50;;;;;;;16.14;61.89;93664.25;5101969;28;20024;-72
2021/06/16 01:10:05;;;;;;;4.20;1.98;;;;;;;16.13;62.00;93662.69;5098380;28;20020;-70
2021/06/16 01:12:55;;;;;;;6.93;2.03;;;;;;;16.09;62.21;93656.44;5094607;28;20075;-70
2021/06/16 01:15:23;;;;;;;3.20;1.60;;;;;;;16.14;61.89;93658.88;5111644;28;20062;-71
2021/06/16 01:17:59;;;;;;;5.15;1.80;;;;;;;16.17;61.82;93668.91;5100685;28;21299;-70
2021/06/16 01:20:42;;;;;;;2.97;1.85;;;;;;;16.17;62.19;93662.75;5089849;28;20047;-70
2021/06/16 01:23:07;;;;;;;6.38;2.00;;;;;;;16.15;62.34;93665.78;5099910;28;20078;-70
2021/06/16 01:26:00;;;;;;;8.02;1.95;;;;;;;16.16;62.27;93669.25;5095754;28;20031;-70
2021/06/16 01:28:31;;;;;;;9.52;2.10;;;;;;;16.05;62.19;93677.09;5095441;28;20117;-70
2021/06/16 01:30:57;;;;;;;6.75;1.90;;;;;;;16.11;62.38;93670.31;5091474;28;20069;-70
2021/06/16 01:33:23;;;;;;;2.65;1.63;;;;;;;16.12;62.36;93671.88;5091948;28;20417;-69
2021/06/16 01:35:51;;;;;;;3.28;1.60;;;;;;;16.08;62.47;93660.28;5104151;28;20028;-70
2021/06/16 01:38:24;;;;;;;3.65;1.95;;;;;;;15.99;63.07;93678.50;5089469;28;20024;-70
2021/06/16 01:40:53;;;;;;;4.88;1.45;;;;;;;16.03;63.01;93657.84;5090956;28;20028;-70
2021/06/16 01:43:20;;;;;;;5.85;2.13;;;;;;;16.05;63.06;93660.97;5108074;28;20024;-70
2021/06/16 01:45:48;;;;;;;3.50;1.48;;;;;;;16.07;62.98;93664.09;5097623;28;20032;-70
2021/06/16 01:48:17;;;;;;;6.65;2.40;;;;;;;15.97;62.98;93672.69;5099469;28;20526;-70
2021/06/16 01:50:44;;;;;;;5.47;1.77;;;;;;;16.00;63.13;93672.78;5101893;28;20063;-70
2021/06/16 01:53:11;;;;;;;5.25;2.05;;;;;;;15.96;63.22;93671.16;5107455;28;20027;-71
2021/06/16 01:55:38;;;;;;;4.88;1.67;;;;;;;15.90;63.14;93665.28;5091812;28;20024;-70
2021/06/16 01:58:06;;;;;;;4.30;2.10;;;;;;;15.89;63.55;93663.69;5103238;28;20444;-70
2021/06/16 02:00:32;;;;;;;3.97;1.95;;;;;;;15.84;63.36;93678.19;5110743;28;20024;-71
2021/06/16 02:02:58;;;;;;;4.20;1.90;;;;;;;15.89;63.16;93663.69;5097163;28;20472;-70
2021/06/16 02:05:25;;;;;;;3.15;1.65;;;;;;;15.82;63.58;93667.03;5101967;28;20070;-70
2021/06/16 02:08:03;;;;;;;3.95;2.08;;;;;;;15.92;63.49;93667.63;5109814;28;20024;-70
2021/06/16 02:10:36;;;;;;;9.48;1.70;;;;;;;15.82;63.46;93669.72;5102596;28;20479;-69
2021/06/16 02:13:06;;;;;;;6.25;2.13;;;;;;;15.87;63.48;93665.19;5091948;28;20032;-70
2021/06/16 02:15:54;;;;;;;4.22;2.13;;;;;;;15.76;63.40;93664.97;5099080;28;20051;-71
2021/06/16 02:18:23;;;;;;;5.90;2.28;;;;;;;15.82;63.48;93674.31;5099511;28;20057;-70
2021/06/16 02:20:49;;;;;;;8.90;2.40;;;;;;;15.88;63.41;93658.69;5110424;28;20072;-70
2021/06/16 02:23:15;;;;;;;2.85;1.70;;;;;;;15.83;63.53;93673.97;5102253;28;20031;-70
2021/06/16 02:25:40;;;;;;;5.55;2.00;;;;;;;15.82;63.47;93664.34;5101413;28;20023;-70
2021/06/16 02:28:05;;;;;;;3.95;1.80;;;;;;;15.86;63.41;93666.34;5091961;28;20439;-71
2021/06/16 02:30:31;;;;;;;3.70;2.08;;;;;;;15.73;63.55;93663.72;5097488;28;20478;-70
2021/06/16 02:32:56;;;;;;;4.43;1.70;;;;;;;15.79;63.12;93666.94;5099416;28;20036;-70
2021/06/16 02:35:22;;;;;;;5.22;2.05;;;;;;;15.83;63.38;93679.34;5096210;28;20471;-69
2021/06/16 02:37:52;;;;;;;4.20;2.33;;;;;;;15.83;63.43;93678.53;5098083;28;20070;-70
2021/06/16 02:40:20;;;;;;;5.10;1.88;;;;;;;15.84;63.37;93666.69;5098796;28;20107;-70
2021/06/16 02:42:49;;;;;;;3.45;1.90;;;;;;;15.79;63.29;93683.06;5097015;28;20441;-70
2021/06/16 02:45:17;;;;;;;3.95;1.92;;;;;;;15.80;63.18;93677.34;5093504;28;20122;-71
2021/06/16 02:47:53;;;;;;;5.13;2.38;;;;;;;15.82;63.53;93674.31;5102173;28;20405;-71
2021/06/16 02:50:23;;;;;;;3.33;1.98;;;;;;;15.86;63.37;93667.09;5089955;28;20032;-71
2021/06/16 02:52:50;;;;;;;5.50;1.63;;;;;;;15.86;63.24;93660.97;5091911;28;20020;-71
2021/06/16 02:55:16;;;;;;;4.10;2.00;;;;;;;15.83;63.37;93671.28;5100559;28;20047;-70
2021/06/16 02:57:44;;;;;;;5.20;1.80;;;;;;;15.89;63.31;93673.69;5101834;28;20506;-71
2021/06/16 03:00:13;;;;;;;3.55;2.10;;;;;;;15.88;63.03;93666.75;5106871;28;20016;-70
2021/06/16 03:02:42;;;;;;;4.82;2.00;;;;;;;15.89;63.10;93676.38;5098803;28;20072;-70
2021/06/16 03:05:10;;;;;;;6.10;2.08;;;;;;;15.90;62.89;93667.19;5098933;28;20063;-70
2021/06/16 03:07:37;;;;;;;6.00;1.98;;;;;;;15.90;62.80;93683.31;5097360;28;20052;-71
2021/06/16 03:10:04;;;;;;;6.75;1.67;;;;;;;15.94;62.76;93674.19;5099956;28;20055;-70
2021/06/16 03:12:30;;;;;;;4.05;2.10;;;;;;;15.97;63.08;93672.69;5110218;28;20419;-70
2021/06/16 03:14:58;;;;;;;4.75;1.80;;;;;;;15.98;62.57;93693.88;5101425;28;20020;-71
2021/06/16 03:17:26;;;;;;;3.42;1.65;;;;;;;15.98;62.51;93685.81;5108501;28;20168;-70
2021/06/16 03:19:53;;;;;;;3.60;1.95;;;;;;;15.92;62.79;93673.00;5095689;28;20030;-71
2021/06/16 03:22:19;;;;;;;4.65;1.90;;;;;;;15.94;62.67;93684.16;5105823;28;20470;-70
2021/06/16 03:24:48;;;;;;;6.85;1.90;;;;;;;15.91;62.69;93682.94;5114048;28;20023;-70
2021/06/16 03:27:14;;;;;;;2.92;1.88;;;;;;;15.94;62.64;93692.22;5102602;28;20032;-71
2021/06/16 03:29:40;;;;;;;6.95;1.48;;;;;;;15.94;62.87;93701.06;5094339;28;20036;-71
2021/06/16 03:32:08;;;;;;;3.58;2.08;;;;;;;15.90;62.79;93702.13;5094705;28;20518;-71
2021/06/16 03:34:35;;;;;;;2.83;1.65;;;;;;;15.90;62.91;93696.75;5107548;28;20467;-71
2021/06/16 03:37:02;;;;;;;3.35;1.80;;;;;;;15.86;62.75;93690.53;5107995;28;20023;-71
2021/06/16 03:39:30;;;;;;;4.93;1.90;;;;;;;15.81;63.09;93695.03;5112662;28;20024;-71
2021/06/16 03:41:55;;;;;;;3.70;1.80;;;;;;;15.87;63.17;93687.47;5113889;28;20106;-71
2021/06/16 03:44:24;;;;;;;4.13;1.85;;;;;;;15.89;63.15;93695.19;5099232;28;20051;-74
2021/06/16 03:46:51;;;;;;;4.25;1.98;;;;;;;15.87;63.09;93692.06;5093857;28;20115;-74
2021/06/16 03:49:18;;;;;;;4.38;1.95;;;;;;;15.93;63.35;93694.13;5108201;28;20483;-74
2021/06/16 03:51:44;;;;;;;5.90;2.25;;;;;;;15.98;63.32;93690.41;5107701;28;20024;-74
2021/06/16 03:54:11;;;;;;;5.30;2.17;;;;;;;16.00;63.17;93696.22;5104406;28;20031;-74
2021/06/16 03:56:45;;;;;;;4.88;2.20;;;;;;;16.00;63.39;93696.97;5106931;28;20038;-74
2021/06/16 03:59:11;;;;;;;8.95;2.10;;;;;;;16.01;62.90;93693.16;5099563;28;20032;-74
2021/06/16 04:01:39;;;;;;;7.80;2.40;;;;;;;16.07;63.14;93696.34;5099553;28;20028;-74
2021/06/16 04:04:05;;;;;;;3.97;2.03;;;;;;;16.11;63.40;93707.19;5103046;28;20032;-74
2021/06/16 04:06:31;;;;;;;5.55;1.92;;;;;;;16.08;62.95;93697.91;5093622;28;20445;-74
2021/06/16 04:08:57;;;;;;;3.60;1.92;;;;;;;16.05;62.74;93693.22;5110250;28;20019;-74
2021/06/16 04:11:23;;;;;;;4.60;2.10;;;;;;;16.12;62.94;93701.47;5094716;28;20415;-74
2021/06/16 04:13:48;;;;;;;3.33;1.90;;;;;;;16.16;62.99;93706.91;5093388;28;20042;-74
2021/06/16 04:16:14;;;;;;;6.80;2.03;;;;;;;16.17;63.00;93706.56;5108142;28;20024;-74
2021/06/16 04:18:41;;;;;;;5.70;2.00;;;;;;;16.21;62.81;93695.88;5112204;28;20075;-74
2021/06/16 04:21:06;;;;;;;4.80;1.92;;;;;;;16.18;63.13;93701.94;5111733;28;20023;-73
2021/06/16 04:23:32;;;;;;;5.53;2.25;;;;;;;16.19;62.72;93715.03;5106009;28;20603;-73
2021/06/16 04:25:58;;;;;;;4.55;2.00;;;;;;;16.23;62.50;93715.91;5103823;28;20024;-73
2021/06/16 04:28:23;;;;;;;4.45;2.15;;;;;;;16.31;62.72;93721.44;5098457;28;20016;-73
2021/06/16 04:30:50;;;;;;;5.70;2.08;;;;;;;16.34;61.96;93728.78;5097941;28;20487;-73
2021/06/16 04:33:15;;;;;;;2.85;1.40;;;;;;;16.32;62.18;93713.00;5099740;28;20020;-74
2021/06/16 04:35:41;;;;;;;4.32;2.38;;;;;;;16.37;62.21;93711.97;5099772;28;20026;-74
2021/06/16 04:38:06;;;;;;;2.90;1.73;;;;;;;16.39;61.88;93707.78;5103843;28;20019;-73
2021/06/16 04:40:32;;;;;;;5.63;1.80;;;;;;;16.40;61.86;93705.88;5102004;28;20016;-73
2021/06/16 04:42:57;;;;;;;6.18;2.58;;;;;;;16.41;61.46;93715.50;5103643;28;20027;-73
2021/06/16 04:45:23;;;;;;;8.05;1.75;;;;;;;16.47;61.51;93710.63;5106565;28;20479;-74
2021/06/16 04:47:49;;;;;;;9.15;1.88;;;;;;;16.52;61.91;93707.66;5103002;28;20036;-74
2021/06/16 04:50:15;;;;;;;2.83;1.88;;;;;;;16.64;61.40;93710.19;5099970;28;20100;-73
2021/06/16 04:52:41;;;;;;;2.72;1.95;;;;;;;16.78;62.12;93715.84;5091326;28;20062;-73
2021/06/16 04:55:10;;;;;;;7.25;2.00;;;;;;;16.86;61.02;93714.09;5092062;28;20016;-73
2021/06/16 04:57:35;;;;;;;3.10;1.63;;;;;;;17.01;60.73;93715.13;5096043;28;20024;-74
2021/06/16 05:00:01;;;;;;;4.70;1.83;;;;;;;17.14;61.08;93718.47;5090700;28;20069;-73
2021/06/16 05:02:26;;;;;;;3.63;1.67;;;;;;;17.28;60.91;93713.34;5107394;28;20031;-73
2021/06/16 05:04:52;;;;;;;3.78;1.85;;;;;;;17.44;61.31;93718.56;5098883;28;20030;-73
2021/06/16 05:07:17;;;;;;;6.63;2.80;;;;;;;17.48;59.64;93716.72;5098639;28;20118;-74
2021/06/16 05:09:42;;;;;;;7.68;2.15;;;;;;;17.51;58.91;93726.03;5115515;27;20032;-72
2021/06/16 05:12:08;;;;;;;3.33;1.60;;;;;;;17.40;58.45;93723.94;5091172;28;20047;-71
2021/06/16 05:14:34;;;;;;;4.90;1.63;;;;;;;17.41;59.62;93725.47;5090726;28;20028;-72
2021/06/16 05:16:59;;;;;;;5.22;1.77;;;;;;;17.35;59.09;93726.91;5089647;28;20040;-71
2021/06/16 05:19:25;;;;;;;2.78;1.70;;;;;;;17.47;59.66;93725.97;5091096;28;20024;-71
2021/06/16 05:21:51;;;;;;;2.92;1.77;;;;;;;17.56;58.89;93728.41;5090823;28;20032;-71
2021/06/16 05:24:17;;;;;;;7.60;1.30;;;;;;;17.69;58.82;93716.31;5089794;28;20085;-71
2021/06/16 05:26:42;;;;;;;4.93;1.88;;;;;;;17.79;58.24;93723.78;5090758;28;20469;-71
2021/06/16 05:29:09;;;;;;;7.80;2.03;;;;;;;17.87;58.22;93737.38;5108883;28;20111;-71
2021/06/16 05:31:35;;;;;;;5.63;1.90;;;;;;;17.98;58.31;93738.34;5102513;28;20024;-71
2021/06/16 05:34:01;;;;;;;6.82;1.95;;;;;;;17.88;57.89;93733.56;5088878;28;20031;-71
2021/06/16 05:36:27;;;;;;;4.93;1.90;;;;;;;17.87;57.80;93740.09;5090636;28;20030;-72
2021/06/16 05:38:52;;;;;;;3.72;1.92;;;;;;;17.79;59.09;93737.25;5090760;28;20038;-71
2021/06/16 05:41:18;;;;;;;5.78;1.90;;;;;;;17.82;57.72;93744.63;5090528;28;20024;-72
2021/06/16 05:43:43;;;;;;;7.65;1.77;;;;;;;17.86;57.87;93742.00;5090943;28;20020;-72
2021/06/16 05:46:10;;;;;;;4.28;2.30;;;;;;;17.95;58.55;93745.25;5099095;28;20039;-70
2021/06/16 05:48:35;;;;;;;5.78;1.63;;;;;;;17.87;57.88;93748.97;5091066;28;20028;-70
2021/06/16 05:51:01;;;;;;;5.13;2.45;;;;;;;17.80;60.07;93743.41;5097749;28;20108;-66
2021/06/16 05:53:26;;;;;;;5.30;2.00;;;;;;;17.76;58.90;93743.34;5092768;28;20055;-64
2021/06/16 05:55:51;;;;;;;3.67;2.08;;;;;;;17.85;60.16;93756.63;5102315;28;20402;-65
2021/06/16 05:58:17;;;;;;;4.95;1.98;;;;;;;17.82;59.26;93744.63;5097048;28;20032;-65
2021/06/16 06:00:42;;;;;;;3.78;1.90;;;;;;;17.82;58.50;93758.09;5094184;28;20028;-65
2021/06/16 06:03:08;;;;;;;4.55;1.77;;;;;;;17.88;58.88;93744.34;5109216;28;20075;-65
2021/06/16 06:05:33;;;;;;;3.80;1.85;;;;;;;17.80;58.36;93749.59;5111700;28;20109;-65
2021/06/16 06:07:58;;;;;;;2.28;1.42;;;;;;;17.94;57.95;93749.06;5095058;28;20455;-65
2021/06/16 06:10:24;;;;;;;3.45;1.80;;;;;;;18.09;59.19;93752.75;5099710;28;20031;-65
2021/06/16 06:12:50;;;;;;;5.72;1.95;;;;;;;18.16;57.57;93760.94;5106829;28;20066;-65
2021/06/16 06:15:16;;;;;;;5.50;1.85;;;;;;;18.18;56.80;93747.88;5091263;28;20059;-73
2021/06/16 06:17:42;;;;;;;4.80;1.92;;;;;;;18.16;57.30;93749.41;5090440;28;20024;-72
2021/06/16 06:20:09;;;;;;;4.40;1.70;;;;;;;18.20;57.92;93767.19;5097996;28;20058;-73
2021/06/16 06:22:34;;;;;;;3.22;1.77;;;;;;;18.11;57.50;93763.94;5109251;28;20051;-72
2021/06/16 06:25:00;;;;;;;2.55;1.67;;;;;;;18.11;57.60;93755.84;5109681;28;20103;-73
2021/06/16 06:27:25;;;;;;;3.30;1.75;;;;;;;18.07;57.61;93763.13;5105554;28;20539;-73
2021/06/16 06:29:51;;;;;;;3.80;1.80;;;;;;;18.14;58.33;93779.41;5090070;28;20032;-73
2021/06/16 06:32:16;;;;;;;9.13;2.40;;;;;;;18.10;58.41;93769.72;5089707;28;20024;-73
2021/06/16 06:34:41;;;;;;;5.45;2.25;;;;;;;18.12;57.65;93773.59;5093749;28;20020;-73
2021/06/16 06:37:07;;;;;;;6.25;1.92;;;;;;;18.01;57.52;93765.38;5100937;28;20114;-70
2021/06/16 06:39:33;;;;;;;6.82;2.10;;;;;;;18.13;58.50;93753.56;5098496;28;20020;-70
2021/06/16 06:41:59;;;;;;;6.25;2.10;;;;;;;18.25;58.09;93760.69;5092928;28;20230;-70
2021/06/16 06:44:24;;;;;;;4.88;1.75;;;;;;;18.35;57.62;93772.78;5098934;28;20063;-69
2021/06/16 06:46:49;;;;;;;4.85;2.60;;;;;;;18.27;57.16;93779.97;5099084;28;20122;-68
2021/06/16 06:49:15;;;;;;;4.32;2.05;;;;;;;18.32;57.04;93784.28;5097090;28;20028;-69
2021/06/16 06:51:41;;;;;;;9.98;2.45;;;;;;;18.29;56.83;93785.03;5104345;28;20020;-69
2021/06/16 06:54:08;;;;;;;3.90;2.08;;;;;;;18.25;57.41;93791.13;5107188;28;20474;-69
2021/06/16 06:56:38;;;;;;;21.10;2.05;;;;;;;18.16;57.68;93784.47;5114165;28;20034;-69
2021/06/16 06:59:04;;;;;;;5.43;2.17;;;;;;;18.24;58.14;93788.81;5112406;28;20016;-69
2021/06/16 07:01:30;;;;;;;4.78;2.13;;;;;;;18.30;58.39;93786.56;5103881;28;20486;-69
2021/06/16 07:04:00;;;;;;;3.63;2.20;;;;;;;18.38;58.65;93799.03;5111431;28;20478;-70
2021/06/16 07:06:26;;;;;;;3.63;2.03;;;;;;;18.44;59.00;93792.97;5095235;28;20451;-70
2021/06/16 07:08:51;;;;;;;3.38;2.00;;;;;;;18.52;57.84;93799.25;5110538;28;20027;-70
2021/06/16 07:11:17;;;;;;;8.05;2.28;;;;;;;18.53;57.96;93800.00;5105951;28;20035;-72
2021/06/16 07:13:42;;;;;;;7.78;2.00;;;;;;;18.54;57.69;93807.75;5092145;28;20056;-71
2021/06/16 07:16:08;;;;;;;2.97;1.70;;;;;;;18.57;57.46;93796.22;5093768;28;20129;-73
2021/06/16 07:18:33;;;;;;;5.82;2.25;;;;;;;18.70;57.26;93787.91;5101754;28;20094;-72
2021/06/16 07:20:59;;;;;;;8.18;1.92;;;;;;;18.77;58.30;93796.09;5105054;28;20026;-72
2021/06/16 07:23:24;;;;;;;4.65;2.17;;;;;;;18.87;59.08;93800.88;5109301;28;20022;-72
2021/06/16 07:25:49;;;;;;;5.85;1.77;;;;;;;18.90;57.03;93789.34;5095426;28;20099;-72
2021/06/16 07:28:15;;;;;;;7.13;1.92;;;;;;;19.02;55.72;93799.91;5098951;28;20387;-72
2021/06/16 07:30:40;;;;;;;4.82;2.10;;;;;;;19.14;55.68;93803.50;5108871;28;20028;-72
2021/06/16 07:33:10;;;;;;;5.50;1.98;;;;;;;19.23;55.88;93790.47;5113813;28;20038;-72
2021/06/16 07:35:36;;;;;;;3.33;2.08;;;;;;;19.39;54.76;93785.63;5113591;28;20462;-71
2021/06/16 07:38:01;;;;;;;4.72;2.05;;;;;;;19.41;54.42;93775.22;5113154;28;20023;-71
2021/06/16 07:40:26;;;;;;;4.90;1.92;;;;;;;19.47;55.14;93769.50;5107933;28;20024;-72
2021/06/16 07:42:52;;;;;;;5.93;2.20;;;;;;;19.63;56.44;93760.00;5091688;28;20032;-72
2021/06/16 07:45:17;;;;;;;2.83;1.83;;;;;;;19.69;55.14;93765.84;5091972;28;20020;-72
2021/06/16 07:47:42;;;;;;;3.05;1.73;;;;;;;19.73;53.81;93769.38;5091853;28;20111;-72
2021/06/16 07:50:08;;;;;;;5.60;2.33;;;;;;;19.90;55.00;93775.31;5103032;28;20032;-72
2021/06/16 07:52:34;;;;;;;5.47;1.95;;;;;;;20.00;54.97;93766.50;5104491;28;20031;-73
2021/06/16 07:54:59;;;;;;;3.05;1.40;;;;;;;20.18;54.65;93770.13;5104256;28;20111;-73
2021/06/16 07:57:25;;;;;;;8.68;1.83;;;;;;;20.29;55.28;93766.72;5101667;28;20024;-72
2021/06/16 07:59:50;;;;;;;3.03;1.50;;;;;;;20.36;53.87;93764.84;5098963;28;20019;-72
2021/06/16 08:02:21;;;;;;;5.85;2.00;;;;;;;20.41;53.92;93774.53;5104167;28;20028;-72
2021/06/16 08:04:46;;;;;;;4.72;1.80;;;;;;;20.44;54.71;93777.25;5102502;28;20034;-71
2021/06/16 08:07:12;;;;;;;3.00;1.90;;;;;;;20.45;52.79;93775.31;5105231;28;20406;-71
2021/06/16 08:09:41;;;;;;;5.63;1.85;;;;;;;20.49;53.67;93778.06;5101736;28;20059;-71
2021/06/16 08:12:09;;;;;;;8.07;1.90;;;;;;;20.57;51.74;93776.94;5104633;28;20090;-71
2021/06/16 08:14:35;;;;;;;6.78;2.50;;;;;;;20.64;52.70;93774.31;5099801;28;20020;-70
2021/06/16 08:17:01;;;;;;;4.05;2.00;;;;;;;20.77;51.22;93783.66;5095867;28;20389;-70
2021/06/16 08:19:26;;;;;;;4.00;1.85;;;;;;;20.77;48.99;93789.06;5097552;28;20020;-70
2021/06/16 08:21:52;;;;;;;2.38;1.85;;;;;;;20.79;49.01;93799.53;5106608;28;20024;-70
2021/06/16 08:24:17;;;;;;;3.10;1.80;;;;;;;20.80;50.02;93795.66;5107582;28;20019;-71
2021/06/16 08:26:43;;;;;;;7.97;2.08;;;;;;;20.77;50.54;93794.50;5101483;28;20485;-70
2021/06/16 08:29:08;;;;;;;7.30;2.40;;;;;;;20.79;51.16;93802.25;5098313;28;20031;-69
2021/06/16 08:31:34;;;;;;;5.82;2.05;;;;;;;20.76;51.23;93794.88;5095771;28;20028;-68
2021/06/16 08:33:59;;;;;;;6.97;2.22;;;;;;;20.80;50.49;93803.78;5106858;28;20086;-69
2021/06/16 08:36:25;;;;;;;4.93;1.77;;;;;;;20.76;50.80;93798.38;5107092;28;20024;-71
2021/06/16 08:38:50;;;;;;;5.68;2.47;;;;;;;20.88;52.55;93805.38;5110392;28;20107;-70
2021/06/16 08:41:17;;;;;;;3.97;1.58;;;;;;;20.84;52.15;93801.88;5103966;28;20034;-70
2021/06/16 08:43:45;;;;;;;5.85;2.50;;;;;;;20.85;51.80;93803.44;5103580;28;20020;-71
2021/06/16 08:46:13;;;;;;;3.22;2.13;;;;;;;20.96;51.42;93809.66;5097015;28;20032;-71
2021/06/16 08:48:40;;;;;;;7.25;1.90;;;;;;;20.98;52.33;93807.34;5101197;28;20449;-71
2021/06/16 08:51:07;;;;;;;7.97;2.15;;;;;;;20.90;50.63;93813.13;5103577;28;20522;-71
2021/06/16 08:53:33;;;;;;;6.28;2.10;;;;;;;20.89;49.47;93819.72;5100994;28;20051;-70
2021/06/16 08:55:59;;;;;;;5.65;3.17;;;;;;;20.84;50.27;93808.09;5101908;28;20032;-70
2021/06/16 08:58:25;;;;;;;12.20;2.72;;;;;;;20.96;51.12;93817.03;5106636;28;20093;-70
2021/06/16 09:00:51;;;;;;;3.58;2.28;;;;;;;21.01;49.83;93816.69;5100878;28;20541;-70
2021/06/16 09:03:18;;;;;;;6.50;2.20;;;;;;;21.05;48.97;93825.59;5098789;28;20032;-70
2021/06/16 09:05:44;;;;;;;4.05;2.05;;;;;;;21.01;49.14;93824.81;5096391;28;20020;-71
2021/06/16 09:08:23;;;;;;;5.63;2.42;;;;;;;20.98;49.21;93830.97;5100892;28;20028;-72
2021/06/16 09:10:53;;;;;;;5.03;1.85;;;;;;;21.07;48.82;93833.34;5098441;28;20024;-71
2021/06/16 09:13:25;;;;;;;9.52;2.33;;;;;;;21.02;50.54;93837.97;5098329;28;20043;-71
2021/06/16 09:15:51;;;;;;;5.75;2.40;;;;;;;21.02;51.03;93837.19;5103619;28;20051;-71
2021/06/16 09:18:17;;;;;;;14.35;2.30;;;;;;;20.89;50.21;93834.03;5099469;28;20123;-71
2021/06/16 09:20:46;;;;;;;6.35;2.22;;;;;;;20.99;49.94;93840.66;5097931;28;20095;-70
2021/06/16 09:23:15;;;;;;;7.63;2.30;;;;;;;21.09;50.42;93847.31;5093224;28;20026;-70
2021/06/16 09:25:41;;;;;;;2.67;1.80;;;;;;;21.17;51.02;93844.22;5104077;28;20026;-71
2021/06/16 09:28:07;;;;;;;4.78;2.13;;;;;;;21.27;49.77;93836.50;5101739;28;20435;-71
2021/06/16 09:30:36;;;;;;;9.32;2.47;;;;;;;21.27;50.39;93836.50;5098683;28;20114;-71
2021/06/16 09:33:19;;;;;;;3.10;1.80;;;;;;;21.28;49.81;93838.84;5102431;28;20019;-72
2021/06/16 09:35:50;;;;;;;4.65;1.98;;;;;;;21.37;50.60;93831.16;5099085;28;20060;-72
2021/06/16 09:38:24;;;;;;;6.20;1.90;;;;;;;21.23;50.64;93839.22;5096112;28;20469;-71
2021/06/16 09:40:50;;;;;;;4.88;1.85;;;;;;;21.20;49.72;93835.31;5096074;28;20031;-71
2021/06/16 09:43:18;;;;;;;2.60;1.70;;;;;;;21.04;49.82;93830.25;5096828;28;20472;-71
2021/06/16 09:45:45;;;;;;;2.90;1.83;;;;;;;20.91;50.33;93842.56;5100728;28;20430;-71
2021/06/16 09:48:21;;;;;;;10.40;2.10;;;;;;;20.91;51.08;93852.63;5104310;28;20059;-71
2021/06/16 09:50:47;;;;;;;6.20;2.30;;;;;;;20.99;50.83;93841.44;5099182;28;20028;-71
2021/06/16 09:53:13;;;;;;;5.13;1.88;;;;;;;21.06;50.72;93837.97;5100278;28;20035;-71
2021/06/16 09:55:39;;;;;;;6.90;1.95;;;;;;;21.02;50.52;93850.72;5102496;28;20570;-72
2021/06/16 09:58:08;;;;;;;15.07;2.40;;;;;;;21.02;52.03;93840.69;5102578;28;20012;-71
2021/06/16 10:00:39;;;;;;;3.00;1.70;;;;;;;21.15;52.14;93840.34;5096636;28;20020;-71
2021/06/16 10:03:13;;;;;;;3.13;1.77;;;;;;;21.08;50.66;93840.31;5097134;28;20491;-69
2021/06/16 10:06:04;;;;;;;2.90;1.83;;;;;;;20.75;50.07;93839.38;5095103;28;20254;-71
2021/06/16 10:08:31;;;;;;;9.25;2.13;;;;;;;20.81;51.43;93851.41;5101576;28;20506;-75
2021/06/16 10:10:57;;;;;;;9.35;2.03;;;;;;;20.88;51.77;93861.50;5101123;28;20058;-74
2021/06/16 10:13:26;;;;;;;3.83;2.05;;;;;;;20.89;51.33;93858.41;5095111;28;20040;-75
2021/06/16 10:15:55;;;;;;;5.43;1.95;;;;;;;20.91;51.06;93864.22;5094663;28;20024;-76
2021/06/16 10:18:23;;;;;;;2.35;1.55;;;;;;;21.06;51.15;93859.66;5097105;28;20020;-75
2021/06/16 10:20:50;;;;;;;3.63;2.17;;;;;;;21.19;52.67;93854.69;5097972;28;20395;-76
2021/06/16 10:23:16;;;;;;;3.88;2.05;;;;;;;21.21;52.16;93852.38;5104229;28;20126;-75
2021/06/16 10:25:41;;;;;;;5.50;2.03;;;;;;;21.24;51.50;93862.44;5099650;28;20074;-76
2021/06/16 10:28:08;;;;;;;5.03;2.10;;;;;;;21.13;50.51;93858.94;5105416;28;20085;-71
2021/06/16 10:30:40;;;;;;;4.80;2.00;;;;;;;21.19;50.73;93860.13;5092256;28;20097;-71
2021/06/16 10:33:26;;;;;;;4.60;2.05;;;;;;;21.30;48.93;93858.22;5099910;28;20384;-70
2021/06/16 10:36:10;;;;;;;5.72;1.98;;;;;;;21.35;49.46;93857.06;5097509;28;20711;-72
2021/06/16 10:38:36;;;;;;;6.53;1.80;;;;;;;21.45;49.34;93848.22;5103401;28;20043;-70
2021/06/16 10:41:02;;;;;;;4.30;1.63;;;;;;;21.52;49.96;93850.97;5100844;28;20438;-72
2021/06/16 10:43:38;;;;;;;3.28;1.83;;;;;;;21.68;49.15;93853.34;5100000;28;20028;-72
2021/06/16 10:46:05;;;;;;;4.55;2.15;;;;;;;21.89;47.81;93859.97;5099961;28;20047;-72
2021/06/16 10:48:44;;;;;;;5.70;2.00;;;;;;;22.06;46.57;93847.59;5098077;28;20441;-71
2021/06/16 10:51:31;;;;;;;2.72;1.88;;;;;;;22.26;47.17;93842.59;5093773;28;20093;-72
2021/06/16 10:54:17;;;;;;;3.50;1.90;;;;;;;22.23;46.10;93844.91;5101563;28;20024;-73
2021/06/16 10:56:54;;;;;;;8.75;1.98;;;;;;;22.23;47.56;93844.91;5097326;28;20031;-71
2021/06/16 10:59:41;;;;;;;3.88;2.05;;;;;;;22.28;47.19;93854.63;5093971;28;20479;-71
2021/06/16 11:02:07;;;;;;;3.03;1.63;;;;;;;22.28;47.01;93849.19;5091726;28;20027;-73
2021/06/16 11:04:32;;;;;;;2.30;1.60;;;;;;;22.27;46.67;93855.78;5098755;28;20390;-72
2021/06/16 11:06:58;;;;;;;5.95;1.85;;;;;;;22.17;47.33;93851.88;5103193;28;20473;-72
2021/06/16 11:09:55;;;;;;;2.47;1.60;;;;;;;22.10;48.28;93859.22;5099658;28;20085;-71
2021/06/16 11:12:37;;;;;;;7.28;2.20;;;;;;;22.18;48.84;93849.94;5095203;28;20048;-71
2021/06/16 11:15:30;;;;;;;6.78;1.83;;;;;;;22.21;48.94;93849.94;5103717;28;20044;-71
2021/06/16 11:18:00;;;;;;;6.07;2.10;;;;;;;22.29;48.32;93845.31;5102167;28;20043;-71
2021/06/16 11:20:40;;;;;;;2.40;1.30;;;;;;;22.47;48.38;93833.66;5096548;28;20497;-71
2021/06/16 11:23:07;;;;;;;3.92;1.63;;;;;;;22.70;47.26;93841.41;5102021;28;20173;-71
2021/06/16 11:25:40;;;;;;;4.10;2.15;;;;;;;22.82;46.64;93841.00;5095530;28;20107;-70
2021/06/16 11:28:13;;;;;;;2.55;1.65;;;;;;;22.97;45.02;93839.78;5093691;28;20036;-74
2021/06/16 11:31:06;;;;;;;4.50;1.25;;;;;;;23.19;44.63;93845.97;5097111;28;20031;-71
2021/06/16 11:33:34;;;;;;;4.40;1.30;;;;;;;23.06;42.92;93830.47;5096639;28;20115;-70
2021/06/16 11:36:04;;;;;;;9.13;1.40;;;;;;;22.95;41.95;93835.91;5096084;28;20024;-74
2021/06/16 11:38:35;;;;;;;2.63;1.48;;;;;;;23.07;42.50;93834.75;5098020;28;20510;-73